createdAt,value
2023-04-25T00:01:09.969Z,10.66
2023-04-25T00:03:39.843Z,10.67
2023-04-25T00:06:10.164Z,10.69
2023-04-25T00:08:41.956Z,10.73
2023-04-25T00:11:11.219Z,10.79
2023-04-25T00:13:42.228Z,10.90
2023-04-25T00:16:11.611Z,10.99
2023-04-25T00:18:46.948Z,11.12
2023-04-25T00:21:18.053Z,11.18
2023-04-25T00:23:49.891Z,11.26
2023-04-25T00:26:19.617Z,11.32
2023-04-25T00:28:48.811Z,11.43
2023-04-25T00:31:18.266Z,11.48
2023-04-25T00:33:49.592Z,11.46
2023-04-25T00:36:19.230Z,11.44
2023-04-25T00:44:07.648Z,11.12
2023-04-25T00:46:38.377Z,11.05
2023-04-25T00:49:07.638Z,11.00
2023-04-25T00:51:38.124Z,10.94
2023-04-25T00:54:15.185Z,10.81
2023-04-25T00:56:45.910Z,10.58
2023-04-25T00:59:21.234Z,10.70
2023-04-25T01:01:51.114Z,10.66
2023-04-25T01:04:21.064Z,10.57
2023-04-25T01:07:01.155Z,10.49
2023-04-25T01:09:33.696Z,10.44
2023-04-25T01:12:03.492Z,10.47
2023-04-25T01:14:37.805Z,10.52
2023-04-25T01:17:14.703Z,10.57
2023-04-25T01:19:46.672Z,10.68
2023-04-25T01:22:28.809Z,10.77
2023-04-25T01:24:58.744Z,10.79
2023-04-25T01:27:29.388Z,10.72
2023-04-25T01:32:40.937Z,10.67
2023-04-25T01:35:12.404Z,10.68
2023-04-25T01:37:44.292Z,10.71
2023-04-25T01:40:16.175Z,10.77
2023-04-25T01:42:51.476Z,10.87
2023-04-25T01:45:21.733Z,10.89
2023-04-25T01:47:52.090Z,10.95
2023-04-25T01:50:32.866Z,11.06
2023-04-25T01:53:10.051Z,11.16
2023-04-25T01:55:39.372Z,11.22
2023-04-25T01:58:13.667Z,11.20
2023-04-25T02:01:00.364Z,11.21
2023-04-25T02:06:16.838Z,11.25
2023-04-25T02:11:31.006Z,11.18
2023-04-25T02:14:25.246Z,11.07
2023-04-25T02:17:15.302Z,11.01
2023-04-25T02:19:44.757Z,11.02
2023-04-25T02:22:14.073Z,11.06
2023-04-25T02:24:45.362Z,11.09
2023-04-25T02:27:15.445Z,11.14
2023-04-25T02:29:45.038Z,11.14
2023-04-25T02:32:14.296Z,11.17
2023-04-25T02:34:43.668Z,11.31
2023-04-25T02:37:12.821Z,11.42
2023-04-25T02:39:42.017Z,11.56
2023-04-25T02:42:18.457Z,11.66
2023-04-25T02:44:47.757Z,11.80
2023-04-25T02:47:17.191Z,11.98
2023-04-25T02:49:46.766Z,12.09
2023-04-25T02:52:16.002Z,12.20
2023-04-25T02:54:47.376Z,12.29
2023-04-25T02:57:18.702Z,12.46
2023-04-25T02:59:59.432Z,12.58
2023-04-25T03:02:28.775Z,12.79
2023-04-25T03:04:58.823Z,12.89
2023-04-25T03:07:28.099Z,13.08
2023-04-25T03:09:57.422Z,13.18
2023-04-25T03:12:29.141Z,13.27
2023-04-25T03:14:58.437Z,13.31
2023-04-25T03:17:27.791Z,13.30
2023-04-25T03:20:02.826Z,13.37
2023-04-25T03:22:33.736Z,13.47
2023-04-25T03:25:03.402Z,13.57
2023-04-25T03:27:36.466Z,13.51
2023-04-25T03:30:07.612Z,13.44
2023-04-25T03:32:38.621Z,13.32
2023-04-25T03:35:13.227Z,13.39
2023-04-25T03:37:46.104Z,13.41
2023-04-25T03:40:31.117Z,13.53
2023-04-25T03:43:31.304Z,13.61
2023-04-25T03:46:06.382Z,13.63
2023-04-25T03:48:35.830Z,13.59
2023-04-25T03:51:05.034Z,13.53
2023-04-25T03:56:23.596Z,13.28
2023-04-25T03:59:07.369Z,13.46
2023-04-25T04:01:37.797Z,13.54
2023-04-25T04:04:07.523Z,13.56
2023-04-25T04:06:37.273Z,13.58
2023-04-25T04:09:26.948Z,13.59
2023-04-25T04:11:57.495Z,13.77
2023-04-25T04:14:28.929Z,14.16
2023-04-25T04:16:58.213Z,14.58
2023-04-25T04:19:38.354Z,14.49
2023-04-25T04:22:12.985Z,14.35
2023-04-25T04:24:44.578Z,14.13
2023-04-25T04:27:25.625Z,14.26
2023-04-25T04:30:16.529Z,14.33
2023-04-25T04:32:56.879Z,14.22
2023-04-25T04:35:26.605Z,14.42
2023-04-25T04:38:01.574Z,14.42
2023-04-25T04:40:36.508Z,14.41
2023-04-25T04:43:22.977Z,14.40
2023-04-25T04:46:06.922Z,14.39
2023-04-25T04:48:57.335Z,14.42
2023-04-25T04:51:45.211Z,14.39
2023-04-25T04:54:48.053Z,14.37
2023-04-25T04:57:36.601Z,14.38
2023-04-25T05:00:19.361Z,14.40
2023-04-25T05:02:53.432Z,14.41
2023-04-25T05:05:58.832Z,14.61
2023-04-25T05:09:18.290Z,14.70
2023-04-25T05:12:09.509Z,14.80
2023-04-25T05:15:01.057Z,14.82
2023-04-25T05:17:48.731Z,14.82
2023-04-25T05:20:36.471Z,14.77
2023-04-25T05:23:43.241Z,14.84
2023-04-25T05:26:33.338Z,14.96
2023-04-25T05:29:10.074Z,14.87
2023-04-25T05:32:03.228Z,14.93
2023-04-25T05:34:33.095Z,14.91
2023-04-25T05:37:07.366Z,14.93
2023-04-25T05:39:42.669Z,15.17
2023-04-25T05:42:34.943Z,15.59
2023-04-25T05:45:21.582Z,15.85
2023-04-25T05:48:10.823Z,15.90
2023-04-25T05:50:57.943Z,15.76
2023-04-25T05:53:58.285Z,15.61
2023-04-25T05:59:07.511Z,15.43
2023-04-25T06:01:36.761Z,15.40
2023-04-25T06:04:07.053Z,15.37
2023-04-25T06:06:36.967Z,15.37
2023-04-25T06:09:14.822Z,15.45
2023-04-25T06:12:09.894Z,15.52
2023-04-25T06:14:39.412Z,15.61
2023-04-25T06:17:09.187Z,15.62
2023-04-25T06:19:43.646Z,15.68
2023-04-25T06:22:26.348Z,15.75
2023-04-25T06:27:36.324Z,15.85
2023-04-25T06:30:09.496Z,15.92
2023-04-25T06:32:44.145Z,16.02
2023-04-25T06:35:13.772Z,16.07
2023-04-25T06:37:43.426Z,16.08
2023-04-25T06:40:20.669Z,16.02
2023-04-25T06:42:55.768Z,16.07
2023-04-25T06:45:59.131Z,16.19
2023-04-25T06:48:32.032Z,16.27
2023-04-25T06:51:08.159Z,16.34
2023-04-25T06:53:39.274Z,16.27
2023-04-25T06:56:13.211Z,16.38
2023-04-25T06:58:56.481Z,16.41
2023-04-25T07:01:38.197Z,16.36
2023-04-25T07:04:13.834Z,16.41
2023-04-25T07:06:50.032Z,16.41
2023-04-25T07:09:22.826Z,16.43
2023-04-25T07:12:00.208Z,16.42
2023-04-25T07:14:30.241Z,16.46
2023-04-25T07:17:07.290Z,16.38
2023-04-25T07:19:39.650Z,16.49
2023-04-25T07:22:19.349Z,16.58
2023-04-25T07:24:49.396Z,16.64
2023-04-25T07:27:22.241Z,16.69
2023-04-25T07:30:06.888Z,16.61
2023-04-25T07:32:36.965Z,16.68
2023-04-25T07:35:17.756Z,16.73
2023-04-25T07:37:47.180Z,16.76
2023-04-25T07:40:19.673Z,16.78
2023-04-25T07:42:55.343Z,16.87
2023-04-25T07:45:36.803Z,16.87
2023-04-25T07:50:43.659Z,16.90
2023-04-25T07:53:12.964Z,16.99
2023-04-25T07:55:49.467Z,17.20
2023-04-25T07:58:23.105Z,17.24
2023-04-25T08:00:59.125Z,17.32
2023-04-25T08:03:54.836Z,17.42
2023-04-25T08:06:35.419Z,17.28
2023-04-25T08:09:16.295Z,17.04
2023-04-25T08:11:45.683Z,17.11
2023-04-25T08:14:19.892Z,17.18
2023-04-25T08:16:55.139Z,17.18
2023-04-25T08:19:26.480Z,17.20
2023-04-25T08:24:39.870Z,16.98
2023-04-25T08:29:54.480Z,16.92
2023-04-25T08:32:24.260Z,16.92
2023-04-25T08:35:13.086Z,16.89
2023-04-25T08:37:47.807Z,16.96
2023-04-25T08:40:20.234Z,17.00
2023-04-25T08:42:59.695Z,17.09
2023-04-25T08:45:35.029Z,17.26
2023-04-25T08:48:23.666Z,17.42
2023-04-25T08:50:54.709Z,17.53
2023-04-25T08:53:29.551Z,17.72
2023-04-25T08:56:03.538Z,17.93
2023-04-25T08:58:38.900Z,18.11
2023-04-25T09:01:16.710Z,18.22
2023-04-25T09:03:53.481Z,18.50
2023-04-25T09:06:23.274Z,18.75
2023-04-25T09:08:53.496Z,18.56
2023-04-25T09:11:23.621Z,18.54
2023-04-25T09:14:13.568Z,18.77
2023-04-25T09:17:08.376Z,19.09
2023-04-25T09:20:13.864Z,19.29
2023-04-25T09:22:50.266Z,19.30
2023-04-25T09:25:20.061Z,19.30
2023-04-25T09:27:54.876Z,19.52
2023-04-25T09:30:36.286Z,19.62
2023-04-25T09:33:13.469Z,19.76
2023-04-25T09:35:56.373Z,19.55
2023-04-25T09:38:35.605Z,19.51
2023-04-25T09:41:13.463Z,19.47
2023-04-25T09:43:49.429Z,19.43
2023-04-25T09:49:10.069Z,19.33
2023-04-25T09:51:58.690Z,19.24
2023-04-25T09:54:32.389Z,19.02
2023-04-25T09:57:20.300Z,18.77
2023-04-25T09:59:51.604Z,18.72
2023-04-25T10:02:23.096Z,18.82
2023-04-25T10:04:59.112Z,18.77
2023-04-25T10:07:39.537Z,18.73
2023-04-25T10:10:18.298Z,18.69
2023-04-25T10:12:49.410Z,18.82
2023-04-25T10:15:18.873Z,18.77
2023-04-25T10:17:48.201Z,18.94
2023-04-25T10:20:20.100Z,19.08
2023-04-25T10:22:54.689Z,19.02
2023-04-25T10:25:24.586Z,19.02
2023-04-25T10:27:54.370Z,18.88
2023-04-25T10:30:23.777Z,18.77
2023-04-25T10:32:53.047Z,18.84
2023-04-25T10:35:29.563Z,18.96
2023-04-25T10:38:06.999Z,18.85
2023-04-25T10:40:36.630Z,18.74
2023-04-25T10:43:47.445Z,18.64
2023-04-25T10:46:22.044Z,18.53
2023-04-25T10:48:58.541Z,18.81
2023-04-25T10:51:40.057Z,18.98
2023-04-25T10:54:21.205Z,19.12
2023-04-25T10:56:53.917Z,19.19
2023-04-25T10:59:27.878Z,19.00
2023-04-25T11:01:58.192Z,18.80
2023-04-25T11:04:31.795Z,18.82
2023-04-25T11:07:14.606Z,18.99
2023-04-25T11:09:49.043Z,19.23
2023-04-25T11:12:18.707Z,19.52
2023-04-25T11:14:53.187Z,19.83
2023-04-25T11:17:23.728Z,19.98
2023-04-25T11:19:53.034Z,20.14
2023-04-25T11:22:24.898Z,20.19
2023-04-25T11:24:54.475Z,20.28
2023-04-25T11:27:25.415Z,20.35
2023-04-25T11:29:54.894Z,20.34
2023-04-25T11:32:25.422Z,20.18
2023-04-25T11:35:00.960Z,19.98
2023-04-25T11:37:35.546Z,19.82
2023-04-25T11:40:07.177Z,19.65
2023-04-25T11:42:36.637Z,19.55
2023-04-25T11:45:07.093Z,19.30
2023-04-25T11:47:37.424Z,19.09
2023-04-25T11:50:08.522Z,19.31
2023-04-25T11:52:46.333Z,19.61
2023-04-25T11:55:18.177Z,19.97
2023-04-25T11:57:53.451Z,19.92
2023-04-25T12:00:29.003Z,19.88
2023-04-25T12:03:04.615Z,19.92
2023-04-25T12:05:35.497Z,19.96
2023-04-25T12:08:17.244Z,19.98
2023-04-25T12:10:49.350Z,19.99
2023-04-25T12:13:24.430Z,20.12
2023-04-25T12:15:53.866Z,20.27
2023-04-25T12:18:24.068Z,20.37
2023-04-25T12:20:59.042Z,20.62
2023-04-25T12:23:31.538Z,20.65
2023-04-25T12:26:03.617Z,20.69
2023-04-25T12:28:35.523Z,20.65
2023-04-25T12:31:10.360Z,20.86
2023-04-25T12:33:41.865Z,20.53
2023-04-25T12:36:18.804Z,20.57
2023-04-25T12:38:50.528Z,20.65
2023-04-25T12:41:20.164Z,20.53
2023-04-25T12:43:49.385Z,20.55
2023-04-25T12:51:53.470Z,20.41
2023-04-25T12:54:22.956Z,20.18
2023-04-25T12:56:55.731Z,20.32
2023-04-25T12:59:29.995Z,20.37
2023-04-25T13:01:59.617Z,20.42
2023-04-25T13:04:29.468Z,20.18
2023-04-25T13:07:06.450Z,20.01
2023-04-25T13:09:35.828Z,19.79
2023-04-25T13:12:06.801Z,19.82
2023-04-25T13:14:41.225Z,19.76
2023-04-25T13:17:11.157Z,19.62
2023-04-25T13:19:46.741Z,19.52
2023-04-25T13:22:20.768Z,19.51
2023-04-25T13:24:50.033Z,19.62
2023-04-25T13:27:24.197Z,19.66
2023-04-25T13:29:53.569Z,19.65
2023-04-25T13:32:22.847Z,19.61
2023-04-25T13:35:05.775Z,19.80
2023-04-25T13:37:38.868Z,19.99
2023-04-25T13:40:14.392Z,20.17
2023-04-25T13:42:45.153Z,20.29
2023-04-25T13:45:17.998Z,20.37
2023-04-25T13:47:52.592Z,20.24
2023-04-25T13:50:22.168Z,20.36
2023-04-25T13:52:53.386Z,20.46
2023-04-25T13:55:28.939Z,20.28
2023-04-25T13:57:58.161Z,20.06
2023-04-25T14:00:27.452Z,20.01
2023-04-25T14:03:10.625Z,19.88
2023-04-25T14:05:53.436Z,19.82
2023-04-25T14:08:24.852Z,19.72
2023-04-25T14:10:54.304Z,19.75
2023-04-25T14:13:24.119Z,19.85
2023-04-25T14:15:58.619Z,19.87
2023-04-25T14:18:32.992Z,19.86
2023-04-25T14:21:02.284Z,19.79
2023-04-25T14:23:33.647Z,19.56
2023-04-25T14:26:08.261Z,19.89
2023-04-25T14:28:37.474Z,19.66
2023-04-25T14:31:07.582Z,19.67
2023-04-25T14:33:37.943Z,19.57
2023-04-25T14:36:07.670Z,19.61
2023-04-25T14:38:41.768Z,19.63
2023-04-25T14:41:11.346Z,19.66
2023-04-25T14:43:41.443Z,19.58
2023-04-25T14:46:16.045Z,19.57
2023-04-25T14:48:45.843Z,19.54
2023-04-25T14:51:15.110Z,19.52
2023-04-25T14:53:51.943Z,19.41
2023-04-25T14:56:21.931Z,19.17
2023-04-25T14:58:51.299Z,19.13
2023-04-25T15:01:26.140Z,18.99
2023-04-25T15:04:01.253Z,18.80
2023-04-25T15:06:31.025Z,18.57
2023-04-25T15:09:02.470Z,18.61
2023-04-25T15:11:31.717Z,18.72
2023-04-25T15:14:01.808Z,18.43
2023-04-25T15:16:31.532Z,18.37
2023-04-25T15:19:04.474Z,18.31
2023-04-25T15:21:33.797Z,18.15
2023-04-25T15:24:05.644Z,18.09
2023-04-25T15:26:35.088Z,18.03
2023-04-25T15:29:06.603Z,17.96
2023-04-25T15:31:36.458Z,17.92
2023-04-25T15:34:05.961Z,17.91
2023-04-25T15:36:35.290Z,17.87
2023-04-25T15:39:06.444Z,17.92
2023-04-25T15:41:35.952Z,17.93
2023-04-25T15:44:05.227Z,17.94
2023-04-25T15:46:39.614Z,17.90
2023-04-25T15:49:09.188Z,17.88
2023-04-25T15:51:38.414Z,17.90
2023-04-25T15:54:21.851Z,17.89
2023-04-25T15:56:51.232Z,17.84
2023-04-25T15:59:20.433Z,17.77
2023-04-25T16:01:50.052Z,17.69
2023-04-25T16:04:19.595Z,17.61
2023-04-25T16:06:49.069Z,17.52
2023-04-25T16:09:23.620Z,17.43
2023-04-25T16:11:55.031Z,17.37
2023-04-25T16:14:29.884Z,17.28
2023-04-25T16:17:01.957Z,17.20
2023-04-25T16:19:31.544Z,17.15
2023-04-25T16:22:01.864Z,17.07
2023-04-25T16:24:31.308Z,17.02
2023-04-25T16:27:02.692Z,16.99
2023-04-25T16:29:32.263Z,16.94
2023-04-25T16:32:03.056Z,16.95
2023-04-25T16:34:32.568Z,17.00
2023-04-25T16:37:01.996Z,17.01
2023-04-25T16:39:31.356Z,16.95
2023-04-25T16:42:04.735Z,16.82
2023-04-25T16:44:39.342Z,16.63
2023-04-25T16:47:08.694Z,16.46
2023-04-25T16:49:38.783Z,16.30
2023-04-25T16:52:08.309Z,16.20
2023-04-25T16:54:37.672Z,16.10
2023-04-25T16:57:15.858Z,16.00
2023-04-25T16:59:50.255Z,15.93
2023-04-25T17:02:24.816Z,15.81
2023-04-25T17:04:54.175Z,15.69
2023-04-25T17:07:24.358Z,15.68
2023-04-25T17:09:58.974Z,15.53
2023-04-25T17:12:30.429Z,15.38
2023-04-25T17:15:00.746Z,15.22
2023-04-25T17:17:34.984Z,15.13
2023-04-25T17:20:15.646Z,15.02
2023-04-25T17:22:47.010Z,14.87
2023-04-25T17:25:21.900Z,14.82
2023-04-25T17:27:53.369Z,14.69
2023-04-25T17:30:23.477Z,14.52
2023-04-25T17:32:53.510Z,14.34
2023-04-25T17:35:28.110Z,14.24
2023-04-25T17:37:57.753Z,14.16
2023-04-25T17:40:27.450Z,14.03
2023-04-25T17:42:58.899Z,14.03
2023-04-25T17:45:34.136Z,14.11
2023-04-25T17:48:03.825Z,13.99
2023-04-25T17:50:38.173Z,13.95
2023-04-25T17:53:13.565Z,13.75
2023-04-25T17:55:43.633Z,13.77
2023-04-25T17:58:15.097Z,13.70
2023-04-25T18:00:45.040Z,13.68
2023-04-25T18:03:15.745Z,13.71
2023-04-25T18:05:45.308Z,13.72
2023-04-25T18:08:14.703Z,13.71
2023-04-25T18:10:44.386Z,13.75
2023-04-25T18:13:22.126Z,13.75
2023-04-25T18:15:51.604Z,13.74
2023-04-25T18:18:30.212Z,13.75
2023-04-25T18:20:59.664Z,13.77
2023-04-25T18:23:29.116Z,13.83
2023-04-25T18:25:58.532Z,13.83
2023-04-25T18:28:29.820Z,13.85
2023-04-25T18:30:59.239Z,13.87
2023-04-25T18:33:29.035Z,13.85
2023-04-25T18:35:59.861Z,13.79
2023-04-25T18:38:36.236Z,13.79
2023-04-25T18:41:18.363Z,13.77
2023-04-25T18:44:01.053Z,13.76
2023-04-25T18:46:31.581Z,13.72
2023-04-25T18:49:01.610Z,13.66
2023-04-25T18:51:32.239Z,13.61
2023-04-25T18:54:01.968Z,13.60
2023-04-25T18:56:31.460Z,13.58
2023-04-25T18:59:22.137Z,13.58
2023-04-25T19:01:53.396Z,13.40
2023-04-25T19:04:28.277Z,13.48
2023-04-25T19:07:03.851Z,13.52
2023-04-25T19:09:33.264Z,13.45
2023-04-25T19:12:03.467Z,13.30
2023-04-25T19:14:40.063Z,13.39
2023-04-25T19:17:09.724Z,13.34
2023-04-25T19:19:39.418Z,13.19
2023-04-25T19:22:09.254Z,13.10
2023-04-25T19:24:38.502Z,13.14
2023-04-25T19:27:08.262Z,13.05
2023-04-25T19:29:43.965Z,13.08
2023-04-25T19:32:13.310Z,13.05
2023-04-25T19:34:43.334Z,13.02
2023-04-25T19:37:12.744Z,13.00
2023-04-25T19:39:42.037Z,12.97
2023-04-25T19:42:11.396Z,12.91
2023-04-25T19:44:47.617Z,12.93
2023-04-25T19:47:16.905Z,12.94
2023-04-25T19:49:47.003Z,12.89
2023-04-25T19:52:16.970Z,12.90
2023-04-25T19:54:47.005Z,12.91
2023-04-25T19:57:16.492Z,12.88
2023-04-25T19:59:49.370Z,12.86
2023-04-25T20:02:24.201Z,12.86
2023-04-25T20:04:53.853Z,12.81
2023-04-25T20:07:24.187Z,12.66
2023-04-25T20:12:39.922Z,12.62
2023-04-25T20:15:12.783Z,12.69
2023-04-25T20:17:48.334Z,12.65
2023-04-25T20:20:18.420Z,12.63
2023-04-25T20:22:47.745Z,12.65
2023-04-25T20:25:19.330Z,12.70
2023-04-25T20:27:49.528Z,12.56
2023-04-25T20:30:21.419Z,12.53
2023-04-25T20:32:50.957Z,12.53
2023-04-25T20:35:22.386Z,12.52
2023-04-25T20:37:56.800Z,12.30
2023-04-25T20:40:26.519Z,12.48
2023-04-25T20:42:55.993Z,12.46
2023-04-25T20:45:31.663Z,12.41
2023-04-25T20:48:02.170Z,12.33
2023-04-25T20:50:31.762Z,12.34
2023-04-25T20:53:06.076Z,12.30
2023-04-25T20:55:36.275Z,12.29
2023-04-25T20:58:06.975Z,12.16
2023-04-25T21:00:38.730Z,12.18
2023-04-25T21:03:08.766Z,12.05
2023-04-25T21:05:38.226Z,12.16
2023-04-25T21:08:07.706Z,11.85
2023-04-25T21:10:37.726Z,12.03
2023-04-25T21:13:07.565Z,12.02
2023-04-25T21:15:44.895Z,12.02
2023-04-25T21:18:14.331Z,12.02
2023-04-25T21:20:43.698Z,11.98
2023-04-25T21:23:18.137Z,11.88
2023-04-25T21:25:51.029Z,11.92
2023-04-25T21:28:20.650Z,11.92
2023-04-25T21:30:52.098Z,11.92
2023-04-25T21:33:27.528Z,11.86
2023-04-25T21:35:57.077Z,11.87
2023-04-25T21:38:26.450Z,11.74
2023-04-25T21:40:59.140Z,11.56
2023-04-25T21:43:28.716Z,11.60
2023-04-25T21:48:33.862Z,11.42
2023-04-25T21:51:03.133Z,11.39
2023-04-25T21:56:34.106Z,11.35
2023-04-25T21:59:03.735Z,11.32
2023-04-25T22:01:35.059Z,11.30
2023-04-25T22:04:04.441Z,11.27
2023-04-25T22:06:34.018Z,11.19
2023-04-25T22:09:08.307Z,11.18
2023-04-25T22:11:37.718Z,11.17
2023-04-25T22:14:07.113Z,11.16
2023-04-25T22:17:11.322Z,11.13
2023-04-25T22:19:41.111Z,10.87
2023-04-25T22:22:11.025Z,11.06
2023-04-25T22:24:40.673Z,11.04
2023-04-25T22:27:10.676Z,11.06
2023-04-25T22:29:46.565Z,11.02
2023-04-25T22:32:17.847Z,10.96
2023-04-25T22:34:47.330Z,10.94
2023-04-25T22:37:18.588Z,10.92
2023-04-25T22:43:12.376Z,10.94
2023-04-25T22:45:56.682Z,10.96
2023-04-25T22:48:45.974Z,10.96
2023-04-25T22:51:15.759Z,10.95
2023-04-25T22:54:05.166Z,10.90
2023-04-25T22:56:34.860Z,10.90
2023-04-25T22:59:04.248Z,10.89
2023-04-25T23:02:07.173Z,10.89
2023-04-25T23:04:56.720Z,10.84
2023-04-25T23:07:26.409Z,10.75
2023-04-25T23:09:55.665Z,10.74
2023-04-25T23:12:24.953Z,10.69
2023-04-25T23:17:29.642Z,10.72
2023-04-25T23:20:00.810Z,10.72
2023-04-25T23:22:35.765Z,10.80
2023-04-25T23:25:05.475Z,10.87
2023-04-25T23:27:35.027Z,10.66
2023-04-25T23:30:06.430Z,10.87
2023-04-25T23:32:40.223Z,10.90
2023-04-25T23:35:12.009Z,10.82
2023-04-25T23:37:48.651Z,10.81
2023-04-25T23:40:23.291Z,10.72
2023-04-25T23:42:52.494Z,10.49
2023-04-25T23:45:22.048Z,10.67
2023-04-25T23:47:52.296Z,10.56
2023-04-25T23:50:23.504Z,10.62
2023-04-25T23:52:57.877Z,10.57
2023-04-25T23:55:27.168Z,10.54
2023-04-25T23:58:03.304Z,10.63
